createdAt,value
2023-01-21T00:00:39.064Z,-3.08
2023-01-21T00:03:09.070Z,-3.08
2023-01-21T00:05:38.536Z,-3.13
2023-01-21T00:08:07.991Z,-3.15
2023-01-21T00:10:37.621Z,-3.14
2023-01-21T00:13:07.095Z,-3.14
2023-01-21T00:15:38.539Z,-3.19
2023-01-21T00:18:08.548Z,-3.23
2023-01-21T00:20:38.692Z,-3.26
2023-01-21T00:23:08.167Z,-3.27
2023-01-21T00:25:37.549Z,-3.28
2023-01-21T00:28:07.220Z,-3.26
2023-01-21T00:30:39.247Z,-3.28
2023-01-21T00:33:09.226Z,-3.32
2023-01-21T00:35:38.608Z,-3.34
2023-01-21T00:38:07.968Z,-3.30
2023-01-21T00:40:37.430Z,-3.32
2023-01-21T00:43:06.843Z,-3.35
2023-01-21T00:45:36.232Z,-3.35
2023-01-21T00:48:07.280Z,-3.35
2023-01-21T00:50:36.656Z,-3.35
2023-01-21T00:53:06.026Z,-3.35
2023-01-21T00:55:35.513Z,-3.34
2023-01-21T00:58:05.039Z,-3.34
2023-01-21T01:00:34.603Z,-3.33
2023-01-21T01:03:04.418Z,-3.29
2023-01-21T01:05:35.325Z,-3.34
2023-01-21T01:08:04.846Z,-3.35
2023-01-21T01:10:34.334Z,-3.31
2023-01-21T01:13:03.818Z,-3.32
2023-01-21T01:15:33.302Z,-3.33
2023-01-21T01:18:03.561Z,-3.35
2023-01-21T01:20:34.675Z,-3.34
2023-01-21T01:23:05.211Z,-3.34
2023-01-21T01:25:35.435Z,-3.34
2023-01-21T01:28:06.074Z,-3.34
2023-01-21T01:30:37.426Z,-3.37
2023-01-21T01:33:07.005Z,-3.38
2023-01-21T01:35:37.888Z,-3.42
2023-01-21T01:38:09.449Z,-3.44
2023-01-21T01:40:40.520Z,-3.41
2023-01-21T01:43:25.143Z,-3.47
2023-01-21T01:45:55.521Z,-3.49
2023-01-21T01:48:44.924Z,-3.50
2023-01-21T01:51:19.472Z,-3.51
2023-01-21T01:53:50.152Z,-3.49
2023-01-21T01:56:20.538Z,-3.47
2023-01-21T01:58:50.841Z,-3.44
2023-01-21T02:01:20.501Z,-3.45
2023-01-21T02:03:59.211Z,-3.42
2023-01-21T02:06:30.212Z,-3.45
2023-01-21T02:08:59.823Z,-3.44
2023-01-21T02:11:29.727Z,-3.43
2023-01-21T02:14:01.254Z,-3.43
2023-01-21T02:17:07.281Z,-3.44
2023-01-21T02:20:50.512Z,-3.41
2023-01-21T02:23:45.479Z,-3.44
2023-01-21T02:27:15.067Z,-3.45
2023-01-21T02:30:53.627Z,-3.46
2023-01-21T02:34:00.731Z,-3.50
2023-01-21T02:36:49.280Z,-3.51
2023-01-21T02:39:33.502Z,-3.52
2023-01-21T02:42:07.954Z,-3.55
2023-01-21T02:44:41.943Z,-3.56
2023-01-21T02:47:27.137Z,-3.56
2023-01-21T02:50:04.578Z,-3.56
2023-01-21T02:52:34.029Z,-3.58
2023-01-21T02:55:05.408Z,-3.58
2023-01-21T02:57:46.950Z,-3.61
2023-01-21T03:00:23.179Z,-3.57
2023-01-21T03:03:26.023Z,-3.60
2023-01-21T03:06:53.652Z,-3.61
2023-01-21T03:09:26.558Z,-3.57
2023-01-21T03:12:10.708Z,-3.62
2023-01-21T03:15:07.839Z,-3.61
2023-01-21T03:17:42.715Z,-3.65
2023-01-21T03:20:20.699Z,-3.64
2023-01-21T03:23:00.566Z,-3.67
2023-01-21T03:25:33.636Z,-3.67
2023-01-21T03:28:10.441Z,-3.64
2023-01-21T03:30:44.924Z,-3.65
2023-01-21T03:33:16.698Z,-3.63
2023-01-21T03:35:48.737Z,-3.63
2023-01-21T03:38:27.214Z,-3.67
2023-01-21T03:41:02.567Z,-3.67
2023-01-21T03:43:32.431Z,-3.66
2023-01-21T03:46:10.013Z,-3.63
2023-01-21T03:48:47.175Z,-3.62
2023-01-21T03:51:22.868Z,-3.64
2023-01-21T03:53:58.464Z,-3.61
2023-01-21T03:56:29.217Z,-3.64
2023-01-21T03:58:58.683Z,-3.66
2023-01-21T04:01:28.116Z,-3.70
2023-01-21T04:03:57.782Z,-3.69
2023-01-21T04:06:27.198Z,-3.67
2023-01-21T04:08:58.050Z,-3.69
2023-01-21T04:11:27.525Z,-3.72
2023-01-21T04:13:56.968Z,-3.68
2023-01-21T04:16:26.586Z,-3.69
2023-01-21T04:18:56.088Z,-3.67
2023-01-21T04:21:25.524Z,-3.65
2023-01-21T04:23:56.865Z,-3.68
2023-01-21T04:26:26.411Z,-3.70
2023-01-21T04:28:55.822Z,-3.69
2023-01-21T04:31:25.242Z,-3.68
2023-01-21T04:33:54.696Z,-3.65
2023-01-21T04:36:24.187Z,-3.65
2023-01-21T04:38:53.627Z,-3.66
2023-01-21T04:41:25.557Z,-3.65
2023-01-21T04:43:55.353Z,-3.66
2023-01-21T04:46:24.801Z,-3.66
2023-01-21T04:48:54.266Z,-3.64
2023-01-21T04:51:23.729Z,-3.66
2023-01-21T04:53:53.170Z,-3.63
2023-01-21T04:56:44.249Z,-3.71
2023-01-21T04:59:14.119Z,-3.71
2023-01-21T05:01:43.725Z,-3.71
2023-01-21T05:04:13.241Z,-3.73
2023-01-21T05:06:42.748Z,-3.77
2023-01-21T05:09:12.300Z,-3.78
2023-01-21T05:11:43.155Z,-3.83
2023-01-21T05:14:12.725Z,-3.81
2023-01-21T05:16:42.398Z,-3.86
2023-01-21T05:19:12.553Z,-3.83
2023-01-21T05:21:42.047Z,-3.85
2023-01-21T05:24:14.663Z,-3.83
2023-01-21T05:26:45.712Z,-3.86
2023-01-21T05:29:15.180Z,-3.88
2023-01-21T05:31:44.835Z,-3.88
2023-01-21T05:34:14.519Z,-3.91
2023-01-21T05:36:44.132Z,-3.90
2023-01-21T05:39:13.622Z,-3.88
2023-01-21T05:41:43.102Z,-3.90
2023-01-21T05:44:17.408Z,-3.90
2023-01-21T05:46:47.121Z,-3.91
2023-01-21T05:49:16.585Z,-3.91
2023-01-21T05:51:46.126Z,-3.93
2023-01-21T05:54:15.938Z,-3.95
2023-01-21T05:56:45.435Z,-3.97
2023-01-21T05:59:16.192Z,-4.00
2023-01-21T06:01:45.637Z,-4.01
2023-01-21T06:04:15.027Z,-4.04
2023-01-21T06:06:44.500Z,-4.05
2023-01-21T06:09:13.900Z,-4.03
2023-01-21T06:11:43.347Z,-3.98
2023-01-21T06:14:12.915Z,-4.03
2023-01-21T06:16:43.675Z,-4.06
2023-01-21T06:19:20.474Z,-4.11
2023-01-21T06:21:49.832Z,-4.16
2023-01-21T06:24:19.620Z,-4.19
2023-01-21T06:26:49.013Z,-4.25
2023-01-21T06:29:18.639Z,-4.24
2023-01-21T06:31:49.505Z,-4.27
2023-01-21T06:34:18.994Z,-4.34
2023-01-21T06:36:48.461Z,-4.39
2023-01-21T06:39:17.930Z,-4.41
2023-01-21T06:41:47.387Z,-4.43
2023-01-21T06:44:16.899Z,-4.46
2023-01-21T06:47:00.223Z,-4.47
2023-01-21T06:49:31.690Z,-4.44
2023-01-21T06:52:01.169Z,-4.50
2023-01-21T06:54:30.715Z,-4.52
2023-01-21T06:57:00.445Z,-4.57
2023-01-21T06:59:30.082Z,-4.58
2023-01-21T07:01:59.602Z,-4.62
2023-01-21T07:04:30.854Z,-4.65
2023-01-21T07:07:00.406Z,-4.68
2023-01-21T07:09:29.866Z,-4.71
2023-01-21T07:11:59.423Z,-4.67
2023-01-21T07:14:29.013Z,-4.72
2023-01-21T07:16:58.497Z,-4.73
2023-01-21T07:19:28.283Z,-4.77
2023-01-21T07:21:59.088Z,-4.83
2023-01-21T07:24:28.784Z,-4.90
2023-01-21T07:26:58.338Z,-4.90
2023-01-21T07:29:29.406Z,-4.91
2023-01-21T07:31:58.861Z,-4.94
2023-01-21T07:34:29.776Z,-4.89
2023-01-21T07:37:00.657Z,-4.85
2023-01-21T07:39:30.015Z,-4.84
2023-01-21T07:41:59.407Z,-4.81
2023-01-21T07:44:29.715Z,-4.80
2023-01-21T07:46:59.377Z,-4.74
2023-01-21T07:49:28.787Z,-4.72
2023-01-21T07:51:59.903Z,-4.66
2023-01-21T07:54:29.615Z,-4.62
2023-01-21T07:56:59.316Z,-4.53
2023-01-21T07:59:28.785Z,-4.54
2023-01-21T08:01:58.450Z,-4.49
2023-01-21T08:05:12.609Z,-4.43
2023-01-21T08:07:43.481Z,-4.40
2023-01-21T08:10:13.127Z,-4.41
2023-01-21T08:12:42.852Z,-4.37
2023-01-21T08:15:13.303Z,-4.34
2023-01-21T08:17:46.481Z,-4.28
2023-01-21T08:20:16.454Z,-4.26
2023-01-21T08:22:47.199Z,-4.22
2023-01-21T08:25:17.218Z,-4.14
2023-01-21T08:27:47.099Z,-4.12
2023-01-21T08:30:18.172Z,-4.09
2023-01-21T08:32:47.621Z,-4.02
2023-01-21T08:35:17.721Z,-3.97
2023-01-21T08:37:49.755Z,-3.91
2023-01-21T08:40:19.461Z,-3.89
2023-01-21T08:42:49.094Z,-3.84
2023-01-21T08:45:19.027Z,-3.78
2023-01-21T08:47:48.721Z,-3.75
2023-01-21T08:50:18.926Z,-3.67
2023-01-21T08:52:54.456Z,-3.65
2023-01-21T08:55:26.881Z,-3.61
2023-01-21T08:57:58.409Z,-3.59
2023-01-21T09:00:28.577Z,-3.54
2023-01-21T09:03:00.178Z,-3.53
2023-01-21T09:05:29.583Z,-3.52
2023-01-21T09:08:00.367Z,-3.54
2023-01-21T09:10:47.390Z,-3.49
2023-01-21T09:13:17.227Z,-3.51
2023-01-21T09:15:46.793Z,-3.48
2023-01-21T09:18:16.184Z,-3.37
2023-01-21T09:20:45.746Z,-3.35
2023-01-21T09:23:25.436Z,-3.32
2023-01-21T09:25:57.123Z,-3.27
2023-01-21T09:28:26.655Z,-3.23
2023-01-21T09:30:58.992Z,-3.20
2023-01-21T09:33:30.865Z,-3.09
2023-01-21T09:36:05.211Z,-3.05
2023-01-21T09:38:36.429Z,-2.99
2023-01-21T09:41:23.591Z,-2.92
2023-01-21T09:44:06.348Z,-2.85
2023-01-21T09:46:45.831Z,-2.79
2023-01-21T09:49:24.690Z,-2.72
2023-01-21T09:52:03.795Z,-2.65
2023-01-21T09:54:39.611Z,-2.60
2023-01-21T09:57:41.893Z,-2.56
2023-01-21T10:00:32.367Z,-2.45
2023-01-21T10:03:21.527Z,-2.48
2023-01-21T10:06:12.453Z,-2.45
2023-01-21T10:09:01.359Z,-2.44
2023-01-21T10:11:51.407Z,-2.39
2023-01-21T10:14:54.326Z,-2.31
2023-01-21T10:17:40.967Z,-2.29
2023-01-21T10:20:18.759Z,-2.22
2023-01-21T10:22:57.342Z,-2.18
2023-01-21T10:25:32.100Z,-2.17
2023-01-21T10:28:10.369Z,-2.12
2023-01-21T10:30:44.769Z,-2.16
2023-01-21T10:33:20.878Z,-2.14
2023-01-21T10:36:35.441Z,-2.11
2023-01-21T10:39:18.580Z,-2.08
2023-01-21T10:42:11.859Z,-2.16
2023-01-21T10:44:52.152Z,-2.19
2023-01-21T10:47:34.078Z,-2.17
2023-01-21T10:50:26.972Z,-2.17
2023-01-21T10:53:05.323Z,-2.18
2023-01-21T10:56:01.927Z,-2.23
2023-01-21T10:58:39.530Z,-2.21
2023-01-21T11:01:22.130Z,-2.18
2023-01-21T11:03:54.916Z,-2.18
2023-01-21T11:06:26.448Z,-2.12
2023-01-21T11:09:03.723Z,-2.08
2023-01-21T11:11:37.336Z,-2.10
2023-01-21T11:14:06.982Z,-2.13
2023-01-21T11:16:44.402Z,-2.17
2023-01-21T11:19:17.799Z,-2.13
2023-01-21T11:22:05.060Z,-2.09
2023-01-21T11:24:45.880Z,-2.06
2023-01-21T11:27:22.665Z,-2.02
2023-01-21T11:29:52.195Z,-1.98
2023-01-21T11:32:25.777Z,-1.93
2023-01-21T11:35:05.509Z,-1.96
2023-01-21T11:37:36.229Z,-1.95
2023-01-21T11:40:19.013Z,-1.97
2023-01-21T11:42:53.277Z,-1.95
2023-01-21T11:45:30.954Z,-1.92
2023-01-21T11:48:02.174Z,-1.90
2023-01-21T11:50:34.985Z,-1.85
2023-01-21T11:53:17.355Z,-1.89
2023-01-21T11:55:51.054Z,-1.91
2023-01-21T11:58:25.113Z,-1.91
2023-01-21T12:00:57.907Z,-1.91
2023-01-21T12:03:35.337Z,-1.91
2023-01-21T12:06:07.930Z,-1.88
2023-01-21T12:08:40.889Z,-1.83
2023-01-21T12:11:11.536Z,-1.81
2023-01-21T12:13:48.036Z,-1.81
2023-01-21T12:16:33.150Z,-1.82
2023-01-21T12:19:49.241Z,-1.81
2023-01-21T12:22:36.452Z,-1.86
2023-01-21T12:25:24.271Z,-1.88
2023-01-21T12:28:17.985Z,-1.89
2023-01-21T12:31:03.199Z,-1.88
2023-01-21T12:33:49.475Z,-1.86
2023-01-21T12:36:29.384Z,-1.84
2023-01-21T12:39:21.321Z,-1.82
2023-01-21T12:42:05.789Z,-1.81
2023-01-21T12:44:45.107Z,-1.77
2023-01-21T12:47:30.111Z,-1.80
2023-01-21T12:50:27.842Z,-1.82
2023-01-21T12:53:17.508Z,-1.80
2023-01-21T12:56:15.569Z,-1.77
2023-01-21T12:58:52.410Z,-1.75
2023-01-21T13:01:52.191Z,-1.76
2023-01-21T13:04:48.020Z,-1.79
2023-01-21T13:07:33.089Z,-1.77
2023-01-21T13:10:16.818Z,-1.78
2023-01-21T13:12:57.297Z,-1.83
2023-01-21T13:15:33.498Z,-1.82
2023-01-21T13:18:17.490Z,-1.81
2023-01-21T13:20:55.156Z,-1.83
2023-01-21T13:23:34.835Z,-1.86
2023-01-21T13:26:14.467Z,-1.85
2023-01-21T13:28:50.531Z,-1.85
2023-01-21T13:31:29.631Z,-1.85
2023-01-21T13:34:11.322Z,-1.86
2023-01-21T13:37:00.995Z,-1.84
2023-01-21T13:39:42.726Z,-1.88
2023-01-21T13:42:36.258Z,-1.90
2023-01-21T13:45:21.874Z,-1.94
2023-01-21T13:48:16.879Z,-1.90
2023-01-21T13:51:07.845Z,-1.94
2023-01-21T13:53:59.684Z,-1.95
2023-01-21T13:56:54.371Z,-1.96
2023-01-21T13:59:33.004Z,-1.95
2023-01-21T14:02:08.463Z,-1.95
2023-01-21T14:04:45.229Z,-1.98
2023-01-21T14:07:23.871Z,-2.00
2023-01-21T14:10:02.687Z,-2.07
2023-01-21T14:13:43.746Z,-2.06
2023-01-21T14:16:59.074Z,-2.06
2023-01-21T14:20:15.661Z,-2.11
2023-01-21T14:23:20.520Z,-2.12
2023-01-21T14:26:38.524Z,-2.16
2023-01-21T14:29:21.269Z,-2.21
2023-01-21T14:31:58.376Z,-2.24
2023-01-21T14:34:35.840Z,-2.23
2023-01-21T14:37:12.948Z,-2.23
2023-01-21T14:39:55.453Z,-2.23
2023-01-21T14:42:44.361Z,-2.24
2023-01-21T14:45:16.697Z,-2.26
2023-01-21T14:47:53.695Z,-2.25
2023-01-21T14:50:48.142Z,-2.25
2023-01-21T14:53:25.361Z,-2.26
2023-01-21T14:56:16.259Z,-2.27
2023-01-21T14:58:51.755Z,-2.29
2023-01-21T15:01:45.108Z,-2.30
2023-01-21T15:04:27.120Z,-2.29
2023-01-21T15:06:59.949Z,-2.30
2023-01-21T15:09:34.175Z,-2.33
2023-01-21T15:12:08.293Z,-2.33
2023-01-21T15:14:41.794Z,-2.35
2023-01-21T15:17:45.748Z,-2.36
2023-01-21T15:20:50.784Z,-2.40
2023-01-21T15:23:40.065Z,-2.41
2023-01-21T15:26:33.406Z,-2.45
2023-01-21T15:29:34.655Z,-2.45
2023-01-21T15:32:30.679Z,-2.46
2023-01-21T15:35:05.066Z,-2.43
2023-01-21T15:37:42.751Z,-2.46
2023-01-21T15:40:20.853Z,-2.49
2023-01-21T15:43:00.327Z,-2.51
2023-01-21T15:45:39.009Z,-2.56
2023-01-21T15:48:47.997Z,-2.57
2023-01-21T15:51:35.440Z,-2.59
2023-01-21T15:54:33.626Z,-2.64
2023-01-21T15:57:35.238Z,-2.65
2023-01-21T16:00:30.650Z,-2.64
2023-01-21T16:03:23.536Z,-2.67
2023-01-21T16:06:05.496Z,-2.68
2023-01-21T16:09:02.910Z,-2.71
2023-01-21T16:11:59.457Z,-2.70
2023-01-21T16:14:52.921Z,-2.71
2023-01-21T16:17:37.027Z,-2.75
2023-01-21T16:20:11.134Z,-2.74
2023-01-21T16:22:46.229Z,-2.78
2023-01-21T16:25:20.131Z,-2.79
2023-01-21T16:27:55.392Z,-2.82
2023-01-21T16:30:31.008Z,-2.81
2023-01-21T16:33:12.410Z,-2.86
2023-01-21T16:35:48.553Z,-2.87
2023-01-21T16:38:21.784Z,-2.88
2023-01-21T16:40:52.735Z,-2.89
2023-01-21T16:43:28.629Z,-2.91
2023-01-21T16:46:05.850Z,-2.91
2023-01-21T16:48:36.497Z,-2.92
2023-01-21T16:51:07.427Z,-2.96
2023-01-21T16:53:36.917Z,-2.93
2023-01-21T16:56:27.156Z,-2.98
2023-01-21T16:59:02.794Z,-2.95
2023-01-21T17:01:32.932Z,-2.98
2023-01-21T17:04:03.462Z,-2.99
2023-01-21T17:06:33.743Z,-3.02
2023-01-21T17:09:08.512Z,-3.05
2023-01-21T17:11:46.069Z,-3.03
2023-01-21T17:14:25.482Z,-3.06
2023-01-21T17:16:57.814Z,-3.11
2023-01-21T17:19:36.810Z,-3.10
2023-01-21T17:22:16.673Z,-3.09
2023-01-21T17:25:17.617Z,-3.12
2023-01-21T17:27:47.393Z,-3.13
2023-01-21T17:30:36.490Z,-3.14
2023-01-21T17:33:05.933Z,-3.16
2023-01-21T17:35:35.526Z,-3.15
2023-01-21T17:38:06.532Z,-3.19
2023-01-21T17:40:41.898Z,-3.19
2023-01-21T17:43:22.512Z,-3.17
2023-01-21T17:45:56.396Z,-3.19
2023-01-21T17:48:33.349Z,-3.13
2023-01-21T17:51:11.241Z,-3.18
2023-01-21T17:53:46.264Z,-3.17
2023-01-21T17:56:16.242Z,-3.16
2023-01-21T17:58:51.107Z,-3.16
2023-01-21T18:01:22.676Z,-3.18
2023-01-21T18:03:52.132Z,-3.17
2023-01-21T18:06:26.772Z,-3.18
2023-01-21T18:08:58.401Z,-3.22
2023-01-21T18:11:27.788Z,-3.22
2023-01-21T18:13:57.195Z,-3.20
2023-01-21T18:16:28.246Z,-3.22
2023-01-21T18:18:57.764Z,-3.20
2023-01-21T18:21:27.154Z,-3.22
2023-01-21T18:23:56.657Z,-3.22
2023-01-21T18:26:31.356Z,-3.22
2023-01-21T18:29:00.855Z,-3.26
2023-01-21T18:31:31.667Z,-3.27
2023-01-21T18:34:01.209Z,-3.24
2023-01-21T18:36:30.618Z,-3.27
2023-01-21T18:39:00.377Z,-3.28
2023-01-21T18:41:29.876Z,-3.28
2023-01-21T18:43:59.274Z,-3.30
2023-01-21T18:46:28.857Z,-3.28
2023-01-21T18:48:59.786Z,-3.31
2023-01-21T18:51:29.562Z,-3.27
2023-01-21T18:53:59.016Z,-3.27
2023-01-21T18:56:28.619Z,-3.22
2023-01-21T18:58:58.002Z,-3.19
2023-01-21T19:01:27.669Z,-3.17
2023-01-21T19:03:57.089Z,-3.18
2023-01-21T19:06:27.888Z,-3.20
2023-01-21T19:08:57.295Z,-3.24
2023-01-21T19:11:26.722Z,-3.27
2023-01-21T19:13:56.243Z,-3.28
2023-01-21T19:16:25.841Z,-3.29
2023-01-21T19:18:55.354Z,-3.23
2023-01-21T19:21:24.823Z,-3.27
2023-01-21T19:23:57.686Z,-3.26
2023-01-21T19:26:28.305Z,-3.23
2023-01-21T19:28:57.700Z,-3.26
2023-01-21T19:31:27.314Z,-3.27
2023-01-21T19:33:57.009Z,-3.27
2023-01-21T19:36:27.214Z,-3.30
2023-01-21T19:39:01.413Z,-3.30
2023-01-21T19:41:30.920Z,-3.32
2023-01-21T19:44:00.355Z,-3.32
2023-01-21T19:46:29.768Z,-3.33
2023-01-21T19:48:59.612Z,-3.34
2023-01-21T19:51:31.764Z,-3.36
2023-01-21T19:54:02.871Z,-3.35
2023-01-21T19:56:32.879Z,-3.36
2023-01-21T19:59:03.429Z,-3.33
2023-01-21T20:01:32.979Z,-3.31
2023-01-21T20:04:02.384Z,-3.36
2023-01-21T20:06:40.262Z,-3.38
2023-01-21T20:09:17.679Z,-3.38
2023-01-21T20:11:47.065Z,-3.37
2023-01-21T20:14:16.448Z,-3.39
2023-01-21T20:16:50.085Z,-3.39
2023-01-21T20:19:20.429Z,-3.41
2023-01-21T20:22:01.135Z,-3.41
2023-01-21T20:24:34.311Z,-3.41
2023-01-21T20:27:08.571Z,-3.42
2023-01-21T20:29:49.663Z,-3.41
2023-01-21T20:32:24.896Z,-3.42
2023-01-21T20:34:54.337Z,-3.40
2023-01-21T20:37:23.763Z,-3.37
2023-01-21T20:39:54.503Z,-3.38
2023-01-21T20:42:23.995Z,-3.39
2023-01-21T20:44:53.427Z,-3.41
2023-01-21T20:47:37.772Z,-3.41
2023-01-21T20:50:19.049Z,-3.41
2023-01-21T20:52:50.186Z,-3.44
2023-01-21T20:55:24.046Z,-3.39
2023-01-21T20:57:53.969Z,-3.40
2023-01-21T21:00:26.631Z,-3.39
2023-01-21T21:02:57.580Z,-3.42
2023-01-21T21:05:29.038Z,-3.42
2023-01-21T21:07:58.633Z,-3.37
2023-01-21T21:10:36.150Z,-3.40
2023-01-21T21:13:06.789Z,-3.43
2023-01-21T21:15:38.146Z,-3.44
2023-01-21T21:18:08.051Z,-3.43
2023-01-21T21:20:39.808Z,-3.42
2023-01-21T21:23:13.854Z,-3.39
2023-01-21T21:25:48.137Z,-3.42
2023-01-21T21:28:21.118Z,-3.42
2023-01-21T21:30:50.577Z,-3.45
2023-01-21T21:33:23.469Z,-3.49
2023-01-21T21:35:52.914Z,-3.49
2023-01-21T21:38:22.799Z,-3.46
2023-01-21T21:40:53.639Z,-3.42
2023-01-21T21:43:38.737Z,-3.42
2023-01-21T21:46:27.647Z,-3.47
2023-01-21T21:48:57.345Z,-3.47
2023-01-21T21:51:27.013Z,-3.48
2023-01-21T21:53:56.883Z,-3.47
2023-01-21T21:56:27.735Z,-3.46
2023-01-21T21:58:57.126Z,-3.46
2023-01-21T22:01:30.487Z,-3.46
2023-01-21T22:04:00.762Z,-3.47
2023-01-21T22:06:31.093Z,-3.48
2023-01-21T22:09:01.221Z,-3.49
2023-01-21T22:11:32.342Z,-3.49
2023-01-21T22:14:03.900Z,-3.48
2023-01-21T22:16:34.201Z,-3.48
2023-01-21T22:19:03.706Z,-3.46
2023-01-21T22:21:35.537Z,-3.47
2023-01-21T22:24:08.167Z,-3.42
2023-01-21T22:26:39.187Z,-3.44
2023-01-21T22:29:08.652Z,-3.43
2023-01-21T22:31:38.240Z,-3.39
2023-01-21T22:34:07.715Z,-3.42
2023-01-21T22:36:37.098Z,-3.41
2023-01-21T22:39:06.637Z,-3.46
2023-01-21T22:41:36.056Z,-3.42
2023-01-21T22:44:06.919Z,-3.42
2023-01-21T22:46:36.416Z,-3.43
2023-01-21T22:49:05.947Z,-3.38
2023-01-21T22:51:35.312Z,-3.42
2023-01-21T22:54:04.953Z,-3.37
2023-01-21T22:56:50.893Z,-3.41
2023-01-21T22:59:22.734Z,-3.42
2023-01-21T23:01:52.343Z,-3.37
2023-01-21T23:04:21.816Z,-3.39
2023-01-21T23:06:54.742Z,-3.40
2023-01-21T23:09:24.405Z,-3.35
2023-01-21T23:11:53.840Z,-3.36
2023-01-21T23:14:24.725Z,-3.35
2023-01-21T23:16:54.721Z,-3.35
2023-01-21T23:19:24.677Z,-3.39
2023-01-21T23:21:54.101Z,-3.40
2023-01-21T23:24:23.774Z,-3.37
2023-01-21T23:26:53.187Z,-3.38
2023-01-21T23:29:24.093Z,-3.42
2023-01-21T23:31:53.626Z,-3.42
2023-01-21T23:34:23.170Z,-3.41
2023-01-21T23:36:52.589Z,-3.41
2023-01-21T23:39:21.952Z,-3.40
2023-01-21T23:41:51.510Z,-3.42
2023-01-21T23:44:20.964Z,-3.42
2023-01-21T23:46:51.770Z,-3.43
2023-01-21T23:49:21.410Z,-3.40
2023-01-21T23:51:50.799Z,-3.35
2023-01-21T23:54:20.259Z,-3.35
2023-01-21T23:56:49.682Z,-3.35
2023-01-21T23:59:19.083Z,-3.36
